Time;durP1;ratioP1;P1;durP2;ratioP2;P2;SDS_P1;SDS_P2;PMS_P1;PMS_P2;Temp;Humidity;BMP_temperature;BMP_pressure;BME280_temperature;BME280_humidity;BME280_pressure;Samples;Min_cycle;Max_cycle;Signal;HPM_P1;HPM_P2
2021/12/23 00:01:36;;;;;;;0.97;0.97;;;-1.30;99.90;;;;;;5032040;28;20246;-71
2021/12/23 00:04:02;;;;;;;1.67;1.53;;;-1.30;99.90;;;;;;5031777;28;20176;-71
2021/12/23 00:06:27;;;;;;;2.80;2.57;;;-1.30;99.90;;;;;;5031543;28;20655;-72
2021/12/23 00:08:54;;;;;;;0.47;0.47;;;-1.30;99.90;;;;;;5032030;28;20196;-72
2021/12/23 00:11:19;;;;;;;0.97;0.83;;;-1.30;99.90;;;;;;5031740;28;20259;-71
2021/12/23 00:13:58;;;;;;;0.60;0.60;;;-1.30;99.90;;;;;;5031772;28;20664;-71
2021/12/23 00:16:40;;;;;;;3.03;2.93;;;-1.30;99.90;;;;;;5013668;28;20669;-71
2021/12/23 00:19:16;;;;;;;4.43;3.80;;;-1.30;99.90;;;;;;5032055;28;20669;-71
2021/12/23 00:24:26;;;;;;;0.67;0.67;;;-1.40;99.90;;;;;;5031758;28;20272;-71
2021/12/23 00:26:51;;;;;;;4.80;1.80;;;-1.40;99.90;;;;;;5031385;28;20265;-72
2021/12/23 00:29:17;;;;;;;1.60;1.13;;;-1.40;99.90;;;;;;5031605;28;20279;-72
2021/12/23 00:31:42;;;;;;;1.97;1.87;;;-1.40;99.90;;;;;;5031642;28;20668;-71
2021/12/23 00:34:10;;;;;;;2.67;2.20;;;-1.40;99.90;;;;;;5032031;28;20174;-71
2021/12/23 00:36:38;;;;;;;1.10;1.10;;;-1.40;99.90;;;;;;5015699;28;20186;-72
2021/12/23 00:39:06;;;;;;;1.30;1.30;;;-1.40;99.90;;;;;;5033974;28;20174;-71
2021/12/23 00:41:32;;;;;;;6.40;3.13;;;-1.40;99.90;;;;;;5033954;28;20180;-71
2021/12/23 00:43:59;;;;;;;0.30;0.30;;;-1.40;99.90;;;;;;5034071;28;20190;-71
2021/12/23 00:46:24;;;;;;;10.57;3.60;;;-1.40;99.90;;;;;;5032616;28;20193;-71
2021/12/23 00:48:50;;;;;;;14.23;4.13;;;-1.30;99.90;;;;;;5031483;28;20190;-71
2021/12/23 00:51:16;;;;;;;5.40;2.63;;;-1.40;99.90;;;;;;5031851;28;20689;-70
2021/12/23 00:53:42;;;;;;;1.13;1.13;;;-1.30;99.90;;;;;;5031539;28;20173;-70
2021/12/23 00:56:12;;;;;;;4.77;4.47;;;-1.40;99.90;;;;;;5035128;28;20191;-71
2021/12/23 00:58:38;;;;;;;2.70;2.53;;;-1.40;99.90;;;;;;5035355;28;20176;-71
2021/12/23 01:01:04;;;;;;;1.20;1.10;;;-1.40;99.90;;;;;;5035659;28;20223;-71
2021/12/23 01:03:30;;;;;;;1.20;1.20;;;-1.40;99.90;;;;;;5035264;28;20205;-72
2021/12/23 01:05:56;;;;;;;2.70;2.53;;;-1.40;99.90;;;;;;5035115;28;20204;-71
2021/12/23 01:08:21;;;;;;;1.83;1.80;;;-1.50;99.90;;;;;;5017290;28;20188;-71
2021/12/23 01:10:51;;;;;;;9.60;2.70;;;-1.50;99.90;;;;;;5035094;28;20432;-70
2021/12/23 01:13:19;;;;;;;5.23;2.47;;;-1.50;99.90;;;;;;5035132;28;20180;-71
2021/12/23 01:16:00;;;;;;;7.30;3.40;;;-1.50;99.90;;;;;;5035400;28;20176;-68
2021/12/23 01:18:30;;;;;;;1.40;1.40;;;-1.50;99.90;;;;;;5035260;28;20177;-71
2021/12/23 01:21:03;;;;;;;1.10;1.10;;;-1.50;99.90;;;;;;5035101;28;20205;-71
2021/12/23 01:23:29;;;;;;;2.97;2.77;;;-1.50;99.90;;;;;;5035089;28;20207;-72
2021/12/23 01:25:55;;;;;;;0.83;0.83;;;-1.50;99.90;;;;;;5034702;28;20184;-71
2021/12/23 01:28:21;;;;;;;3.37;3.07;;;-1.50;99.90;;;;;;5034963;28;20256;-70
2021/12/23 01:30:47;;;;;;;4.53;4.03;;;-1.40;99.90;;;;;;5016982;28;20200;-71
2021/12/23 01:33:13;;;;;;;0.80;0.80;;;-1.40;99.90;;;;;;5017284;28;20595;-72
2021/12/23 01:35:40;;;;;;;3.40;3.17;;;-1.40;99.90;;;;;;5034705;28;20187;-71
2021/12/23 01:38:06;;;;;;;4.30;2.50;;;-1.50;99.90;;;;;;5034613;28;20221;-72
2021/12/23 01:40:32;;;;;;;1.50;1.50;;;-1.50;99.90;;;;;;5034380;28;20195;-71
2021/12/23 01:42:58;;;;;;;7.27;6.00;;;-1.50;99.90;;;;;;5034749;28;20224;-71
2021/12/23 01:45:26;;;;;;;0.83;0.83;;;-1.50;99.90;;;;;;5034638;28;20238;-71
2021/12/23 01:47:52;;;;;;;0.47;0.47;;;-1.50;99.90;;;;;;5034389;28;20182;-72
2021/12/23 01:50:24;;;;;;;0.87;0.87;;;-1.50;99.90;;;;;;5034186;28;20479;-72
2021/12/23 01:52:50;;;;;;;9.90;2.20;;;-1.50;99.90;;;;;;5034636;28;20180;-71
2021/12/23 01:55:15;;;;;;;13.10;8.13;;;-1.40;99.90;;;;;;5034399;28;20230;-71
2021/12/23 01:57:42;;;;;;;2.77;1.93;;;-1.40;99.90;;;;;;5034184;28;20196;-72
2021/12/23 02:00:13;;;;;;;1.23;1.23;;;-1.30;99.90;;;;;;5034199;28;20221;-72
2021/12/23 02:02:39;;;;;;;1.73;1.63;;;-1.30;99.90;;;;;;5034187;28;20691;-71
2021/12/23 02:05:07;;;;;;;2.63;2.43;;;-1.40;99.90;;;;;;5016254;28;20617;-71
2021/12/23 02:07:33;;;;;;;5.10;2.90;;;-1.40;99.90;;;;;;5033847;28;20245;-71
2021/12/23 02:09:59;;;;;;;5.70;4.10;;;-1.30;99.90;;;;;;5033939;28;20224;-71
2021/12/23 02:12:26;;;;;;;9.20;8.07;;;-1.30;99.90;;;;;;5033367;28;20269;-71
2021/12/23 02:14:51;;;;;;;3.23;3.03;;;-1.40;99.90;;;;;;5034066;28;20190;-71
2021/12/23 02:17:17;;;;;;;2.00;1.90;;;-1.40;99.90;;;;;;5033602;28;20263;-71
2021/12/23 02:19:43;;;;;;;1.70;1.63;;;-1.40;99.90;;;;;;5016318;28;20209;-71
2021/12/23 02:22:08;;;;;;;1.67;1.60;;;-1.30;99.90;;;;;;5016301;28;20208;-72
2021/12/23 02:24:34;;;;;;;4.30;3.10;;;-1.30;99.90;;;;;;5034021;28;20190;-71
2021/12/23 02:26:59;;;;;;;2.43;2.23;;;-1.40;99.90;;;;;;5033292;28;20176;-71
2021/12/23 02:29:25;;;;;;;2.97;2.77;;;-1.40;99.90;;;;;;5033681;28;20271;-73
2021/12/23 02:31:52;;;;;;;1.00;1.00;;;-1.30;99.90;;;;;;5034083;28;20254;-72
2021/12/23 02:34:19;;;;;;;0.87;0.87;;;-1.30;99.90;;;;;;5016268;28;20613;-72
2021/12/23 02:36:54;;;;;;;1.43;1.33;;;-1.30;99.90;;;;;;5016347;28;20197;-72
2021/12/23 02:39:21;;;;;;;5.20;4.63;;;-1.20;99.90;;;;;;5034275;28;20203;-71
2021/12/23 02:41:47;;;;;;;3.60;3.30;;;-1.20;99.90;;;;;;5033440;28;20189;-71
2021/12/23 02:44:13;;;;;;;1.93;1.70;;;-1.10;99.90;;;;;;5034063;28;20183;-72
2021/12/23 02:46:39;;;;;;;4.30;2.80;;;-1.10;99.90;;;;;;5021183;28;20524;-72
2021/12/23 02:49:04;;;;;;;2.23;2.10;;;-1.10;99.90;;;;;;5033417;28;20212;-73
2021/12/23 02:51:30;;;;;;;1.40;1.40;;;-1.10;99.90;;;;;;5034367;28;20185;-73
2021/12/23 02:53:55;;;;;;;2.73;2.13;;;-1.10;99.90;;;;;;5034272;28;20185;-72
2021/12/23 02:56:21;;;;;;;4.13;1.83;;;-1.00;99.90;;;;;;5033341;28;20181;-72
2021/12/23 02:58:47;;;;;;;2.53;2.33;;;-1.00;99.90;;;;;;5033750;28;20265;-72
2021/12/23 03:01:15;;;;;;;2.43;2.33;;;-1.10;99.90;;;;;;5015890;28;20358;-72
2021/12/23 03:03:42;;;;;;;11.00;5.97;;;-1.00;99.90;;;;;;5033705;28;20762;-71
2021/12/23 03:06:09;;;;;;;1.17;1.17;;;-1.00;99.90;;;;;;5033091;28;20212;-72
2021/12/23 03:08:45;;;;;;;1.60;1.60;;;-1.00;99.90;;;;;;5015781;28;20198;-72
2021/12/23 03:11:16;;;;;;;0.80;0.80;;;-1.00;99.90;;;;;;5033340;28;20219;-71
2021/12/23 03:13:42;;;;;;;1.13;1.13;;;-1.00;99.90;;;;;;5037404;28;20182;-72
2021/12/23 03:16:08;;;;;;;1.77;1.67;;;-1.00;99.90;;;;;;5047258;28;20172;-71
2021/12/23 03:18:35;;;;;;;1.57;1.43;;;-1.00;99.90;;;;;;5036434;28;20246;-72
2021/12/23 03:21:01;;;;;;;0.30;0.30;;;-1.00;99.90;;;;;;5032892;28;20208;-71
2021/12/23 03:23:27;;;;;;;1.80;1.70;;;-1.00;99.90;;;;;;5032688;28;20205;-71
2021/12/23 03:25:52;;;;;;;3.13;2.93;;;-1.00;99.90;;;;;;5032454;28;20185;-72
2021/12/23 03:28:18;;;;;;;0.77;0.77;;;-1.00;99.90;;;;;;5015171;28;20206;-71
2021/12/23 03:30:44;;;;;;;2.37;2.17;;;-1.00;99.90;;;;;;5032647;28;20204;-71
2021/12/23 03:33:10;;;;;;;3.40;3.20;;;-1.00;99.90;;;;;;5032901;28;20260;-71
2021/12/23 03:35:36;;;;;;;0.37;0.37;;;-1.00;99.90;;;;;;5032723;28;20181;-72
2021/12/23 03:38:02;;;;;;;0.40;0.40;;;-1.00;99.90;;;;;;5032039;28;20186;-71
2021/12/23 03:40:28;;;;;;;0.47;0.47;;;-1.00;99.90;;;;;;5032207;28;20251;-71
2021/12/23 03:42:54;;;;;;;1.70;1.60;;;-1.00;99.90;;;;;;5032348;28;20216;-71
2021/12/23 03:45:20;;;;;;;1.63;1.63;;;-1.00;99.90;;;;;;5032430;28;20608;-72
2021/12/23 03:47:48;;;;;;;3.23;1.90;;;-0.90;99.90;;;;;;5032076;28;20686;-71
2021/12/23 03:50:17;;;;;;;0.80;0.80;;;-1.00;99.90;;;;;;5032286;28;20240;-71
2021/12/23 03:52:43;;;;;;;2.43;2.33;;;-1.00;99.90;;;;;;5032064;28;20209;-71
2021/12/23 03:55:08;;;;;;;1.20;1.20;;;-0.90;99.90;;;;;;5032655;28;20564;-72
2021/12/23 03:57:34;;;;;;;0.63;0.63;;;-0.90;99.90;;;;;;5032215;28;20189;-72
2021/12/23 04:00:00;;;;;;;2.97;2.77;;;-0.90;99.90;;;;;;5056090;22;20243;-72
2021/12/23 04:02:25;;;;;;;1.47;1.40;;;-0.90;99.90;;;;;;5090517;28;20696;-72
2021/12/23 04:04:51;;;;;;;0.40;0.40;;;-0.90;99.90;;;;;;5091766;28;20457;-73
2021/12/23 04:07:16;;;;;;;3.97;3.60;;;-0.90;99.90;;;;;;5091852;28;20180;-73
2021/12/23 04:09:42;;;;;;;3.60;3.30;;;-0.90;99.90;;;;;;5091732;28;20183;-73
2021/12/23 04:12:08;;;;;;;2.70;2.57;;;-0.90;99.90;;;;;;5111154;28;20704;-73
2021/12/23 04:14:34;;;;;;;4.80;2.30;;;-0.90;99.90;;;;;;5111780;28;20183;-73
2021/12/23 04:16:59;;;;;;;1.03;0.97;;;-0.90;99.90;;;;;;5093452;28;20261;-73
2021/12/23 04:19:28;;;;;;;2.73;2.20;;;-1.00;99.90;;;;;;5111557;28;20190;-73
2021/12/23 04:21:54;;;;;;;0.63;0.63;;;-1.00;99.90;;;;;;5111862;28;20240;-73
2021/12/23 04:24:20;;;;;;;8.90;3.63;;;-1.00;99.90;;;;;;5111689;28;20175;-72
2021/12/23 04:26:45;;;;;;;3.57;3.37;;;-0.90;99.90;;;;;;5111654;28;20220;-73
2021/12/23 04:29:11;;;;;;;2.80;2.60;;;-1.00;99.90;;;;;;5110781;28;20242;-72
2021/12/23 04:31:36;;;;;;;0.93;0.93;;;-1.00;99.90;;;;;;5111650;28;20568;-71
2021/12/23 04:34:02;;;;;;;1.40;1.40;;;-1.00;99.90;;;;;;5111677;28;20186;-71
2021/12/23 04:36:29;;;;;;;2.60;2.50;;;-1.00;99.90;;;;;;5111374;28;20244;-72
2021/12/23 04:38:58;;;;;;;0.40;0.40;;;-1.00;99.90;;;;;;5107845;28;20547;-72
2021/12/23 04:41:24;;;;;;;0.63;0.63;;;-0.90;99.90;;;;;;5102278;28;20199;-72
2021/12/23 04:43:49;;;;;;;2.30;1.57;;;-0.90;99.90;;;;;;5111337;28;20726;-72
2021/12/23 04:46:15;;;;;;;2.50;1.27;;;-1.00;99.90;;;;;;5106102;28;20187;-72
2021/12/23 04:48:41;;;;;;;2.53;2.37;;;-1.00;99.90;;;;;;5090340;28;20185;-72
2021/12/23 04:51:06;;;;;;;5.87;1.80;;;-1.00;99.90;;;;;;5111608;28;20203;-73
2021/12/23 04:53:32;;;;;;;3.10;1.90;;;-1.00;99.90;;;;;;5111585;28;20664;-73
2021/12/23 04:55:58;;;;;;;3.50;3.20;;;-1.10;99.90;;;;;;5092842;28;20675;-73
2021/12/23 04:58:24;;;;;;;2.17;2.00;;;-1.00;99.90;;;;;;5111336;28;20178;-72
2021/12/23 05:00:51;;;;;;;1.50;1.40;;;-1.00;99.90;;;;;;5111413;28;20222;-73
2021/12/23 05:03:18;;;;;;;1.50;1.43;;;-1.00;99.90;;;;;;5111519;28;20206;-72
2021/12/23 05:05:45;;;;;;;2.20;1.63;;;-1.00;99.90;;;;;;5093157;28;20175;-71
2021/12/23 05:08:11;;;;;;;1.53;1.43;;;-1.10;99.90;;;;;;5111233;28;20171;-72
2021/12/23 05:10:37;;;;;;;2.30;2.20;;;-1.10;99.90;;;;;;5093275;28;20199;-71
2021/12/23 05:13:03;;;;;;;0.87;0.87;;;-1.10;99.90;;;;;;5111035;28;20649;-72
2021/12/23 05:15:30;;;;;;;4.43;3.07;;;-1.10;99.90;;;;;;5111450;28;20179;-71
2021/12/23 05:17:56;;;;;;;3.57;3.33;;;-1.10;99.90;;;;;;5110959;28;20250;-71
2021/12/23 05:20:22;;;;;;;2.30;1.03;;;-1.20;99.90;;;;;;5111320;28;20202;-71
2021/12/23 05:22:48;;;;;;;5.50;4.23;;;-1.20;99.90;;;;;;5111123;28;20244;-71
2021/12/23 05:25:14;;;;;;;1.63;1.50;;;-1.20;99.90;;;;;;5111278;28;20190;-73
2021/12/23 05:27:40;;;;;;;3.80;2.77;;;-1.20;99.90;;;;;;5110793;28;20203;-72
2021/12/23 05:30:08;;;;;;;11.00;4.17;;;-1.20;99.90;;;;;;5111048;28;20232;-73
2021/12/23 05:32:34;;;;;;;6.17;5.67;;;-1.20;99.90;;;;;;5111544;28;20186;-72
2021/12/23 05:34:59;;;;;;;4.83;4.50;;;-1.20;99.90;;;;;;5099539;28;20266;-72
2021/12/23 05:37:25;;;;;;;1.53;1.53;;;-1.30;99.90;;;;;;5085305;28;20921;-72
2021/12/23 05:39:50;;;;;;;2.33;2.23;;;-1.30;99.90;;;;;;5081759;28;20193;-70
2021/12/23 05:42:16;;;;;;;3.17;2.97;;;-1.30;99.90;;;;;;5112647;28;20201;-72
2021/12/23 05:44:41;;;;;;;0.83;0.83;;;-1.30;99.90;;;;;;5114166;28;20222;-71
2021/12/23 05:47:07;;;;;;;1.03;1.03;;;-1.30;99.90;;;;;;5106471;28;20175;-72
2021/12/23 05:49:33;;;;;;;1.23;1.13;;;-1.30;99.90;;;;;;5104351;28;20197;-70
2021/12/23 05:51:58;;;;;;;2.67;2.50;;;-1.30;99.90;;;;;;5087659;28;20194;-72
2021/12/23 05:54:24;;;;;;;2.70;2.50;;;-1.30;99.90;;;;;;5106080;28;20214;-72
2021/12/23 05:56:50;;;;;;;3.57;3.30;;;-1.20;99.90;;;;;;5113813;28;20172;-72
2021/12/23 05:59:16;;;;;;;1.33;1.23;;;-1.20;99.90;;;;;;5113707;28;20202;-70
2021/12/23 06:01:41;;;;;;;8.77;4.60;;;-1.10;99.90;;;;;;5115458;28;20227;-72
2021/12/23 06:04:07;;;;;;;9.80;5.30;;;-1.10;99.90;;;;;;5103389;28;20206;-71
2021/12/23 06:06:33;;;;;;;4.07;3.80;;;-1.10;99.90;;;;;;5097921;28;20174;-73
2021/12/23 06:08:59;;;;;;;4.77;4.33;;;-1.10;99.90;;;;;;5114392;28;20177;-73
2021/12/23 06:11:24;;;;;;;2.97;2.83;;;-1.10;99.90;;;;;;5113671;28;20195;-73
2021/12/23 06:13:50;;;;;;;6.10;2.53;;;-1.00;99.90;;;;;;5113798;28;20190;-73
2021/12/23 06:16:15;;;;;;;7.40;1.97;;;-1.00;99.90;;;;;;5113526;28;20236;-73
2021/12/23 06:18:41;;;;;;;0.80;0.80;;;-1.00;99.90;;;;;;5114179;28;20179;-73
2021/12/23 06:21:07;;;;;;;0.27;0.27;;;-0.90;99.90;;;;;;5113741;28;20195;-73
2021/12/23 06:23:32;;;;;;;3.00;2.80;;;-0.90;99.90;;;;;;5114139;28;20282;-72
2021/12/23 06:25:58;;;;;;;0.83;0.83;;;-0.90;99.90;;;;;;5112961;28;20175;-72
2021/12/23 06:28:23;;;;;;;2.00;1.70;;;-0.90;99.90;;;;;;5113822;28;20252;-72
2021/12/23 06:30:49;;;;;;;6.70;5.63;;;-0.90;99.90;;;;;;5095236;28;20195;-72
2021/12/23 06:33:14;;;;;;;2.03;1.83;;;-0.90;99.90;;;;;;5113598;28;20183;-72
2021/12/23 06:35:40;;;;;;;2.50;2.03;;;-0.80;99.90;;;;;;5113648;28;20334;-72
2021/12/23 06:38:08;;;;;;;1.70;1.60;;;-0.80;99.90;;;;;;5094869;28;20186;-72
2021/12/23 06:40:34;;;;;;;6.03;5.07;;;-0.80;99.90;;;;;;5099865;28;20198;-72
2021/12/23 06:43:01;;;;;;;6.47;5.93;;;-0.80;99.90;;;;;;5113433;28;20709;-72
2021/12/23 06:45:27;;;;;;;3.07;2.97;;;-0.80;99.90;;;;;;5113507;28;20718;-71
2021/12/23 06:47:52;;;;;;;4.93;4.47;;;-0.80;99.90;;;;;;5104931;28;20264;-72
2021/12/23 06:50:20;;;;;;;0.47;0.47;;;-0.70;99.90;;;;;;5113159;28;20275;-72
2021/12/23 06:52:46;;;;;;;3.40;2.00;;;-0.80;99.90;;;;;;5112451;28;20305;-72
2021/12/23 06:55:12;;;;;;;8.37;1.73;;;-0.80;99.90;;;;;;5113111;28;20268;-72
2021/12/23 06:57:39;;;;;;;2.83;2.63;;;-0.70;99.90;;;;;;5112701;28;20175;-72
2021/12/23 07:00:07;;;;;;;0.10;0.10;;;-0.70;99.90;;;;;;5112993;28;20186;-72
2021/12/23 07:02:37;;;;;;;0.77;0.77;;;-0.70;99.90;;;;;;5113375;28;20226;-72
2021/12/23 07:05:03;;;;;;;3.53;3.27;;;-0.60;99.90;;;;;;5113189;28;20643;-72
2021/12/23 07:07:30;;;;;;;2.83;2.27;;;-0.60;99.90;;;;;;5112482;28;20204;-71
2021/12/23 07:09:56;;;;;;;7.23;2.57;;;-0.60;99.90;;;;;;5113001;28;20262;-71
2021/12/23 07:12:22;;;;;;;3.13;2.30;;;-0.60;99.90;;;;;;5112758;28;20708;-72
2021/12/23 07:14:49;;;;;;;3.33;3.13;;;-0.60;99.90;;;;;;5113002;28;20247;-72
2021/12/23 07:17:14;;;;;;;2.57;1.50;;;-0.60;99.90;;;;;;5094590;28;20184;-71
2021/12/23 07:19:40;;;;;;;2.00;1.90;;;-0.60;99.90;;;;;;5112789;28;20194;-71
2021/12/23 07:22:05;;;;;;;3.13;2.93;;;-0.60;99.90;;;;;;5112285;28;20263;-72
2021/12/23 07:24:31;;;;;;;0.97;0.97;;;-0.60;99.90;;;;;;5094435;28;20641;-72
2021/12/23 07:26:57;;;;;;;2.80;2.60;;;-0.60;99.90;;;;;;5112704;28;20590;-72
2021/12/23 07:29:23;;;;;;;0.70;0.70;;;-0.60;99.90;;;;;;5112573;28;20594;-71
2021/12/23 07:31:48;;;;;;;0.67;0.67;;;-0.60;99.90;;;;;;5094711;28;20615;-71
2021/12/23 07:34:14;;;;;;;2.57;2.37;;;-0.60;99.90;;;;;;5112445;28;20326;-72
2021/12/23 07:36:41;;;;;;;9.80;5.07;;;-0.60;99.90;;;;;;5111911;28;20181;-71
2021/12/23 07:39:07;;;;;;;2.60;2.40;;;-0.60;99.90;;;;;;5088816;28;20182;-71
2021/12/23 07:41:33;;;;;;;4.53;2.77;;;-0.50;99.90;;;;;;5104467;28;20551;-71
2021/12/23 07:44:03;;;;;;;1.43;1.43;;;-0.50;99.90;;;;;;5098367;28;20204;-71
2021/12/23 07:46:34;;;;;;;2.03;1.93;;;-0.50;99.90;;;;;;5088157;28;20180;-71
2021/12/23 07:49:00;;;;;;;4.53;4.33;;;-0.50;99.90;;;;;;5070333;28;20211;-69
2021/12/23 07:51:26;;;;;;;3.57;2.40;;;-0.50;99.90;;;;;;5069672;28;20223;-72
2021/12/23 07:53:53;;;;;;;1.53;1.50;;;-0.50;99.90;;;;;;5085846;28;20176;-70
2021/12/23 07:56:19;;;;;;;2.07;1.97;;;-0.40;99.90;;;;;;5068071;28;20184;-71
2021/12/23 07:58:45;;;;;;;1.40;1.30;;;-0.50;99.90;;;;;;5086666;28;20211;-70
2021/12/23 08:01:11;;;;;;;1.70;1.70;;;-0.50;99.90;;;;;;5089133;28;20727;-71
2021/12/23 08:03:36;;;;;;;2.10;1.90;;;-0.40;99.90;;;;;;5111149;28;20202;-71
2021/12/23 08:06:02;;;;;;;0.80;0.80;;;-0.40;99.90;;;;;;5111625;28;20914;-72
2021/12/23 08:08:28;;;;;;;3.13;3.03;;;-0.40;99.90;;;;;;5112141;28;20198;-72
2021/12/23 08:10:54;;;;;;;3.53;3.23;;;-0.30;99.90;;;;;;5112111;28;20195;-71
2021/12/23 08:13:19;;;;;;;0.73;0.73;;;-0.30;99.90;;;;;;5093788;28;20179;-71
2021/12/23 08:15:45;;;;;;;6.50;4.60;;;-0.30;99.90;;;;;;5092923;28;20657;-71
2021/12/23 08:18:10;;;;;;;0.30;0.30;;;-0.30;99.90;;;;;;5084043;28;20273;-71
2021/12/23 08:20:36;;;;;;;5.83;4.50;;;-0.30;99.90;;;;;;5111828;28;20210;-71
2021/12/23 08:23:02;;;;;;;1.33;1.33;;;-0.30;99.90;;;;;;5111832;28;20205;-71
2021/12/23 08:25:28;;;;;;;2.60;2.40;;;-0.20;99.90;;;;;;5111738;28;20189;-71
2021/12/23 08:27:53;;;;;;;0.33;0.33;;;-0.20;99.90;;;;;;5093161;28;20167;-71
2021/12/23 08:30:20;;;;;;;4.53;2.67;;;-0.20;99.90;;;;;;5111763;28;20701;-71
2021/12/23 08:32:48;;;;;;;1.47;1.37;;;-0.10;99.90;;;;;;5111462;28;20187;-72
2021/12/23 08:35:14;;;;;;;3.77;3.57;;;-0.10;99.90;;;;;;5113061;28;20229;-71
2021/12/23 08:37:45;;;;;;;2.47;2.33;;;-0.10;99.90;;;;;;5093086;28;20183;-71
2021/12/23 08:40:12;;;;;;;1.30;1.20;;;-0.10;99.90;;;;;;5079735;28;20206;-71
2021/12/23 08:42:38;;;;;;;2.00;1.87;;;-0.10;99.90;;;;;;5111575;28;20307;-70
2021/12/23 08:45:05;;;;;;;0.57;0.57;;;0.00;99.90;;;;;;5111636;28;20175;-71
2021/12/23 08:47:31;;;;;;;2.70;2.50;;;0.00;99.90;;;;;;5102918;28;20229;-72
2021/12/23 08:49:57;;;;;;;1.27;1.27;;;0.00;99.90;;;;;;5111883;28;20391;-70
2021/12/23 08:52:22;;;;;;;0.67;0.67;;;0.00;99.90;;;;;;5092838;28;20192;-71
2021/12/23 08:54:48;;;;;;;2.80;2.20;;;0.10;99.90;;;;;;5103470;28;20605;-71
2021/12/23 08:57:14;;;;;;;0.33;0.33;;;0.10;99.90;;;;;;5077323;28;20613;-69
2021/12/23 08:59:40;;;;;;;2.93;2.73;;;0.10;99.90;;;;;;5101955;28;20763;-70
2021/12/23 09:02:05;;;;;;;3.43;2.37;;;0.10;99.90;;;;;;5109765;28;20250;-71
2021/12/23 09:04:31;;;;;;;12.30;3.43;;;0.20;99.90;;;;;;5111218;28;20587;-71
2021/12/23 09:06:57;;;;;;;2.37;2.23;;;0.20;99.90;;;;;;5110832;28;20737;-70
2021/12/23 09:09:24;;;;;;;9.00;3.70;;;0.30;99.90;;;;;;5092933;28;20175;-71
2021/12/23 09:11:51;;;;;;;1.00;0.83;;;0.30;99.90;;;;;;5087406;28;20260;-71
2021/12/23 09:14:17;;;;;;;3.30;1.90;;;0.30;99.90;;;;;;5096030;28;20171;-71
2021/12/23 09:16:42;;;;;;;1.43;1.33;;;0.40;99.90;;;;;;5101072;28;20233;-71
2021/12/23 09:19:09;;;;;;;0.87;0.87;;;0.40;99.90;;;;;;5115509;28;20229;-71
2021/12/23 09:21:36;;;;;;;9.00;3.40;;;0.40;99.90;;;;;;5115206;28;20207;-71
2021/12/23 09:24:03;;;;;;;11.13;3.13;;;0.40;99.90;;;;;;5114480;28;20255;-71
2021/12/23 09:26:31;;;;;;;2.83;2.63;;;0.50;99.90;;;;;;5114866;28;20179;-71
2021/12/23 09:29:08;;;;;;;4.60;4.37;;;0.50;99.90;;;;;;5115119;28;20245;-69
2021/12/23 09:34:18;;;;;;;5.90;3.17;;;0.60;99.90;;;;;;5115039;28;20673;-71
2021/12/23 09:36:44;;;;;;;1.63;1.47;;;0.60;99.90;;;;;;5114288;28;20171;-72
2021/12/23 09:39:11;;;;;;;3.47;1.17;;;0.70;99.90;;;;;;5109042;28;20528;-72
2021/12/23 09:41:40;;;;;;;3.17;2.80;;;0.70;99.90;;;;;;5088675;28;20694;-71
2021/12/23 09:44:08;;;;;;;2.67;2.43;;;0.80;99.90;;;;;;5114204;28;20214;-71
2021/12/23 09:46:34;;;;;;;2.23;2.13;;;0.90;99.90;;;;;;5106419;28;20599;-72
2021/12/23 09:49:01;;;;;;;4.17;3.37;;;0.90;99.90;;;;;;5114563;28;20569;-72
2021/12/23 09:51:29;;;;;;;10.40;5.40;;;0.90;99.90;;;;;;5114481;28;20738;-72
2021/12/23 09:54:01;;;;;;;4.97;2.60;;;1.00;99.90;;;;;;5114654;28;20561;-72
2021/12/23 09:56:27;;;;;;;1.83;1.80;;;1.00;99.90;;;;;;5113771;28;20588;-72
2021/12/23 09:58:56;;;;;;;2.83;2.63;;;1.00;99.90;;;;;;5114558;28;20236;-72
2021/12/23 10:01:22;;;;;;;3.80;3.50;;;1.10;99.90;;;;;;5138288;22;20224;-72
2021/12/23 10:03:48;;;;;;;2.43;1.70;;;1.20;99.90;;;;;;5061592;28;20236;-72
2021/12/23 10:06:14;;;;;;;6.40;0.97;;;1.30;99.90;;;;;;5028078;28;20204;-71
2021/12/23 10:08:40;;;;;;;2.17;1.33;;;1.40;99.90;;;;;;5035329;28;20178;-72
2021/12/23 10:11:17;;;;;;;2.60;2.40;;;1.50;99.90;;;;;;5034492;28;20193;-71
2021/12/23 10:29:01;;;;;;;1.93;1.83;;;1.60;99.90;;;;;;5053330;28;20258;-71
2021/12/23 10:30:32;;;;;;;3.30;3.20;;;1.60;99.90;;;;;;5054089;28;20190;-71
2021/12/23 10:38:21;;;;;;;5.60;3.73;;;1.70;99.90;;;;;;5043333;28;20259;-71
2021/12/23 10:40:55;;;;;;;4.60;2.33;;;1.70;99.90;;;;;;5015849;28;20209;-70
2021/12/23 10:43:39;;;;;;;3.97;3.67;;;1.80;99.90;;;;;;5016685;28;20301;-73
2021/12/23 10:46:16;;;;;;;2.97;2.77;;;1.80;99.90;;;;;;5017895;28;20653;-73
2021/12/23 10:49:33;;;;;;;4.20;3.80;;;1.90;99.90;;;;;;5018698;28;20181;-71
2021/12/23 10:52:07;;;;;;;3.33;3.03;;;1.90;99.90;;;;;;5030787;28;20663;-71
2021/12/23 11:00:16;;;;;;;1.97;1.87;;;1.90;99.90;;;;;;5033422;28;20201;-72
2021/12/23 11:03:01;;;;;;;2.37;1.90;;;1.90;99.90;;;;;;5033434;28;20232;-72
2021/12/23 11:05:35;;;;;;;2.47;2.33;;;1.90;99.90;;;;;;5033434;28;20189;-71
2021/12/23 11:11:01;;;;;;;3.00;2.80;;;2.00;99.90;;;;;;5044055;28;20180;-71
2021/12/23 11:38:13;;;;;;;0.23;0.23;;;2.30;99.90;;;;;;5021646;28;20229;-72
2021/12/23 11:45:47;;;;;;;1.60;1.53;;;2.40;99.90;;;;;;5051892;28;20178;-73
2021/12/23 11:48:14;;;;;;;2.23;2.13;;;2.40;99.90;;;;;;5039199;28;20189;-72
2021/12/23 11:53:25;;;;;;;4.00;3.63;;;2.50;99.90;;;;;;5032689;28;20189;-72
2021/12/23 11:55:54;;;;;;;1.40;1.27;;;2.50;99.90;;;;;;5032431;28;20208;-72
2021/12/23 11:58:24;;;;;;;4.97;4.40;;;2.50;99.90;;;;;;5014676;28;20192;-72
2021/12/23 12:01:21;;;;;;;1.50;1.40;;;2.50;99.90;;;;;;5031970;28;20242;-71
2021/12/23 12:03:57;;;;;;;0.90;0.90;;;2.50;99.90;;;;;;5023528;28;20220;-71
2021/12/23 12:06:42;;;;;;;4.50;2.90;;;2.50;99.90;;;;;;5039191;28;20260;-71
2021/12/23 12:09:16;;;;;;;1.80;1.70;;;2.50;99.90;;;;;;5014316;28;20185;-72
2021/12/23 12:11:59;;;;;;;1.77;1.77;;;2.50;99.90;;;;;;5032204;28;20206;-72
2021/12/23 12:14:36;;;;;;;1.87;1.77;;;2.50;99.90;;;;;;5034190;28;20183;-75
2021/12/23 12:17:24;;;;;;;3.57;3.27;;;2.60;99.90;;;;;;5023739;28;20180;-72
2021/12/23 12:20:09;;;;;;;4.77;4.33;;;2.60;99.90;;;;;;5038717;28;20200;-72
2021/12/23 12:22:56;;;;;;;1.57;1.47;;;2.60;99.90;;;;;;5051797;28;20205;-72
2021/12/23 12:25:24;;;;;;;4.83;4.23;;;2.70;99.90;;;;;;5052010;28;20653;-72
2021/12/23 12:27:56;;;;;;;2.57;2.20;;;2.70;99.90;;;;;;5052223;28;20586;-71
2021/12/23 12:31:06;;;;;;;2.57;2.23;;;2.80;99.90;;;;;;5033776;28;20221;-72
2021/12/23 12:33:34;;;;;;;4.20;2.97;;;2.80;99.90;;;;;;5023123;28;20194;-73
2021/12/23 12:36:03;;;;;;;4.53;4.20;;;2.80;99.90;;;;;;5051776;28;20181;-72
2021/12/23 12:38:33;;;;;;;2.03;1.97;;;2.80;99.90;;;;;;5051728;28;20179;-73
2021/12/23 12:41:25;;;;;;;4.53;3.40;;;2.90;99.90;;;;;;5029964;28;20215;-72
2021/12/23 12:44:22;;;;;;;11.77;3.50;;;3.00;99.90;;;;;;5011062;28;20215;-72
2021/12/23 12:47:09;;;;;;;2.07;1.87;;;3.00;99.90;;;;;;5032149;28;20183;-72
2021/12/23 12:49:40;;;;;;;3.93;2.80;;;3.10;99.90;;;;;;5031464;28;20184;-72
2021/12/23 12:52:11;;;;;;;1.80;1.80;;;3.10;99.90;;;;;;5031213;28;20285;-72
2021/12/23 12:55:07;;;;;;;6.10;3.40;;;3.20;99.90;;;;;;5032215;28;20240;-72
2021/12/23 12:57:46;;;;;;;0.93;0.77;;;3.30;99.90;;;;;;5016863;28;20192;-73
2021/12/23 13:00:22;;;;;;;4.50;3.07;;;3.40;99.90;;;;;;5032183;28;20243;-72
2021/12/23 13:02:55;;;;;;;6.03;2.70;;;3.50;99.90;;;;;;5031715;28;20299;-72
2021/12/23 13:05:28;;;;;;;4.43;2.73;;;3.70;99.90;;;;;;5032102;28;20180;-76
2021/12/23 13:07:54;;;;;;;5.20;2.77;;;3.90;99.90;;;;;;5032036;28;20185;-73
2021/12/23 13:10:28;;;;;;;7.07;3.73;;;3.70;99.90;;;;;;5013867;28;20238;-72
2021/12/23 13:13:00;;;;;;;4.73;4.33;;;3.50;99.90;;;;;;5031592;28;20211;-74
2021/12/23 13:15:29;;;;;;;3.50;3.03;;;3.50;99.90;;;;;;5031596;28;20252;-74
2021/12/23 13:18:08;;;;;;;2.67;1.83;;;3.60;99.90;;;;;;5030885;28;20191;-72
2021/12/23 13:20:44;;;;;;;2.90;2.80;;;3.60;99.90;;;;;;5030592;28;20201;-73
2021/12/23 13:23:15;;;;;;;2.33;2.23;;;3.60;99.90;;;;;;5031924;28;20220;-72
2021/12/23 13:25:48;;;;;;;1.63;1.63;;;3.60;99.90;;;;;;5014039;28;20188;-72
2021/12/23 13:28:42;;;;;;;0.40;0.40;;;3.70;99.90;;;;;;5031714;28;20196;-76
2021/12/23 13:31:13;;;;;;;2.50;2.33;;;3.80;99.90;;;;;;5031553;28;20223;-73
2021/12/23 13:33:45;;;;;;;2.63;2.43;;;3.70;99.90;;;;;;5032008;28;20372;-72
2021/12/23 13:36:22;;;;;;;2.53;1.77;;;3.70;99.90;;;;;;5019012;28;20181;-72
2021/12/23 13:38:53;;;;;;;5.20;2.97;;;3.70;99.90;;;;;;5031657;28;20195;-72
2021/12/23 13:41:24;;;;;;;6.30;5.77;;;3.70;99.90;;;;;;5030477;28;20196;-72
2021/12/23 13:43:51;;;;;;;6.00;2.43;;;3.70;99.90;;;;;;5031838;28;20230;-72
2021/12/23 13:46:17;;;;;;;5.37;3.00;;;3.60;99.90;;;;;;5030933;28;20180;-72
2021/12/23 13:48:51;;;;;;;5.57;3.30;;;3.60;99.90;;;;;;5016231;28;20245;-72
2021/12/23 13:51:20;;;;;;;3.57;3.27;;;3.60;99.90;;;;;;5025279;28;20279;-71
2021/12/23 13:53:46;;;;;;;4.50;4.27;;;3.50;99.90;;;;;;5051013;28;20314;-72
2021/12/23 13:56:15;;;;;;;3.23;2.07;;;3.50;99.90;;;;;;5050399;28;20212;-73
2021/12/23 13:58:41;;;;;;;3.27;3.07;;;3.50;99.90;;;;;;5050880;28;20207;-74
2021/12/23 14:01:08;;;;;;;3.17;1.40;;;3.60;99.90;;;;;;5051456;28;20287;-71
2021/12/23 14:03:34;;;;;;;6.60;3.17;;;3.50;99.90;;;;;;5040389;28;20219;-72